createdAt,value
2017-01-30T00:00:06.304Z,96.41
2017-01-30T00:00:34.585Z,96.22
2017-01-30T00:01:02.546Z,96.61
2017-01-30T00:01:30.796Z,96.51
2017-01-30T00:01:59.118Z,96.89
2017-01-30T00:02:27.337Z,96.89
2017-01-30T00:02:55.656Z,97.09
2017-01-30T00:03:23.848Z,96.99
2017-01-30T00:03:52.171Z,97.09
2017-01-30T00:04:20.325Z,96.99
2017-01-30T00:04:48.597Z,96.89
2017-01-30T00:05:16.804Z,96.89
2017-01-30T00:05:44.996Z,96.89
2017-01-30T00:06:13.202Z,97.09
2017-01-30T00:06:41.398Z,97.09
2017-01-30T00:07:09.688Z,96.89
2017-01-30T00:07:38.041Z,97.09
2017-01-30T00:08:06.272Z,96.89
2017-01-30T00:08:34.570Z,96.89
2017-01-30T00:09:02.662Z,96.89
2017-01-30T00:09:30.894Z,97.19
2017-01-30T00:09:59.157Z,97.47
2017-01-30T00:10:27.385Z,96.99
2017-01-30T00:10:55.725Z,97.19
2017-01-30T00:11:23.863Z,96.89
2017-01-30T00:11:52.157Z,96.41
2017-01-30T00:12:20.403Z,96.31
2017-01-30T00:12:48.726Z,96.51
2017-01-30T00:13:16.921Z,96.51
2017-01-30T00:13:45.193Z,96.41
2017-01-30T00:14:13.178Z,96.31
2017-01-30T00:14:41.527Z,96.7
2017-01-30T00:15:09.729Z,96.51
2017-01-30T00:15:37.986Z,97.09
2017-01-30T00:16:06.147Z,96.99
2017-01-30T00:16:34.218Z,97.09
2017-01-30T00:17:02.325Z,97.09
2017-01-30T00:17:30.617Z,97.47
2017-01-30T00:17:58.930Z,96.89
2017-01-30T00:18:27.135Z,96.8
2017-01-30T00:18:55.512Z,96.89
2017-01-30T00:19:23.634Z,96.8
2017-01-30T00:19:51.664Z,96.8
2017-01-30T00:20:19.857Z,96.8
2017-01-30T00:20:48.152Z,96.89
2017-01-30T00:21:16.282Z,96.89
2017-01-30T00:21:44.532Z,97.28
2017-01-30T00:22:12.600Z,96.99
2017-01-30T00:22:40.831Z,97.28
2017-01-30T00:23:08.902Z,97.28
2017-01-30T00:23:37.281Z,96.99
2017-01-30T00:24:05.563Z,97.19
2017-01-30T00:24:33.920Z,96.8
2017-01-30T00:25:02.222Z,97.38
2017-01-30T00:25:30.415Z,97.67
2017-01-30T00:25:58.637Z,97.47
2017-01-30T00:26:26.760Z,97.77
2017-01-30T00:26:55.098Z,98.15
2017-01-30T00:27:23.296Z,97.91
2017-01-30T00:27:51.401Z,97.96
2017-01-30T00:28:19.664Z,98.05
2017-01-30T00:28:47.909Z,97.96
2017-01-30T00:29:16.065Z,98.1
2017-01-30T00:29:44.218Z,98.15
2017-01-30T00:30:12.415Z,97.96
2017-01-30T00:30:40.468Z,98.05
2017-01-30T00:31:08.577Z,97.67
2017-01-30T00:31:36.789Z,97.86
2017-01-30T00:32:04.901Z,97.96
2017-01-30T00:32:33.106Z,97.96
2017-01-30T00:33:01.215Z,98.25
2017-01-30T00:33:29.420Z,98.05
2017-01-30T00:33:57.597Z,97.67
2017-01-30T00:34:25.804Z,97.57
2017-01-30T00:34:54.042Z,97.57
2017-01-30T00:35:22.228Z,97.52
2017-01-30T00:35:50.364Z,97.77
2017-01-30T00:36:18.498Z,97.77
2017-01-30T00:36:46.787Z,97.72
2017-01-30T00:37:15.043Z,98.1
2017-01-30T00:37:43.103Z,97.62
2017-01-30T00:38:11.393Z,97.62
2017-01-30T00:38:39.649Z,97.62
2017-01-30T00:39:07.882Z,98
2017-01-30T00:39:36.053Z,98.1
2017-01-30T00:40:04.313Z,97.91
2017-01-30T00:40:32.531Z,98
2017-01-30T00:41:00.608Z,98.58
2017-01-30T00:41:28.716Z,98.29
2017-01-30T00:41:56.948Z,98.2
2017-01-30T00:42:25.111Z,98.49
2017-01-30T00:42:53.319Z,98.68
2017-01-30T00:43:21.600Z,99.07
2017-01-30T00:43:49.837Z,98.87
2017-01-30T00:44:18.080Z,98.68
2017-01-30T00:44:46.310Z,98.78
2017-01-30T00:45:14.434Z,98.97
2017-01-30T00:45:42.637Z,98.68
2017-01-30T00:46:10.880Z,99.35
2017-01-30T00:46:39.177Z,99.26
2017-01-30T00:47:07.171Z,99.35
2017-01-30T00:47:35.342Z,99.45
2017-01-30T00:48:03.611Z,99.26
2017-01-30T00:48:31.890Z,99.45
2017-01-30T00:49:00.415Z,99.45
2017-01-30T00:49:28.451Z,99.07
2017-01-30T00:49:56.666Z,98.78
2017-01-30T00:50:24.966Z,99.16
2017-01-30T00:50:53.188Z,99.55
2017-01-30T00:51:21.514Z,98.87
2017-01-30T00:51:49.714Z,99.55
2017-01-30T00:52:18.029Z,99.45
2017-01-30T00:52:46.228Z,99.45
2017-01-30T00:53:14.376Z,99.84
2017-01-30T00:53:42.453Z,99.65
2017-01-30T00:54:10.605Z,99.55
2017-01-30T00:54:38.883Z,99.16
2017-01-30T00:55:07.032Z,99.65
2017-01-30T00:55:35.244Z,99.16
2017-01-30T00:56:03.196Z,99.26
2017-01-30T00:56:31.234Z,99.45
2017-01-30T00:56:59.269Z,99.16
2017-01-30T00:57:27.618Z,99.45
2017-01-30T00:57:55.834Z,99.07
2017-01-30T00:58:23.942Z,99.26
2017-01-30T00:58:52.067Z,99.45
2017-01-30T00:59:20.286Z,99.16
2017-01-30T00:59:48.460Z,99.26
2017-01-30T01:00:16.581Z,99.55
2017-01-30T01:00:44.629Z,99.45
2017-01-30T01:01:12.554Z,99.26
2017-01-30T01:01:40.691Z,99.45
2017-01-30T01:02:08.715Z,99.45
2017-01-30T01:02:36.990Z,99.45
2017-01-30T01:03:05.102Z,99.65
2017-01-30T01:03:33.327Z,99.55
2017-01-30T01:04:01.933Z,99.35
2017-01-30T01:04:30.137Z,99.07
2017-01-30T01:04:58.260Z,99.26
2017-01-30T01:05:26.491Z,99.45
2017-01-30T01:05:54.692Z,99.26
2017-01-30T01:06:23.005Z,99.07
2017-01-30T01:06:51.278Z,99.45
2017-01-30T01:07:19.589Z,99.65
2017-01-30T01:07:47.803Z,99.55
2017-01-30T01:08:15.944Z,99.26
2017-01-30T01:08:43.874Z,99.26
2017-01-30T01:09:12.198Z,99.55
2017-01-30T01:09:40.550Z,99.35
2017-01-30T01:10:08.878Z,99.35
2017-01-30T01:10:37.028Z,99.65
2017-01-30T01:11:05.218Z,99.98
2017-01-30T01:11:33.450Z,99.55
2017-01-30T01:12:01.663Z,99.45
2017-01-30T01:12:29.785Z,99.65
2017-01-30T01:12:57.818Z,99.65
2017-01-30T01:13:26.042Z,99.55
2017-01-30T01:13:54.171Z,99.74
2017-01-30T01:14:22.249Z,99.35
2017-01-30T01:14:50.251Z,99.5
2017-01-30T01:15:18.639Z,99.4
2017-01-30T01:15:46.852Z,99.74
2017-01-30T01:16:15.046Z,99.65
2017-01-30T01:16:43.250Z,99.69
2017-01-30T01:17:11.292Z,99.5
2017-01-30T01:17:39.381Z,99.45
2017-01-30T01:18:07.609Z,99.45
2017-01-30T01:18:35.743Z,99.74
2017-01-30T01:19:03.992Z,99.74
2017-01-30T01:19:32.143Z,99.74
2017-01-30T01:20:00.436Z,99.5
2017-01-30T01:20:28.605Z,99.79
2017-01-30T01:20:56.507Z,99.69
2017-01-30T01:21:24.713Z,99.98
2017-01-30T01:21:52.951Z,99.99
2017-01-30T01:22:21.181Z,99.99
2017-01-30T01:22:49.306Z,99.99
2017-01-30T01:23:17.502Z,99.99
2017-01-30T01:23:45.732Z,99.99
2017-01-30T01:24:14.021Z,99.99
2017-01-30T01:24:42.319Z,99.99
2017-01-30T01:25:10.485Z,99.79
2017-01-30T01:25:38.684Z,99.98
2017-01-30T01:26:06.795Z,99.98
2017-01-30T01:26:34.917Z,99.99
2017-01-30T01:27:03.032Z,99.99
2017-01-30T01:27:31.165Z,99.98
2017-01-30T01:27:59.512Z,99.99
2017-01-30T01:28:27.879Z,99.99
2017-01-30T01:28:56.143Z,99.99
2017-01-30T01:29:24.357Z,99.98
2017-01-30T01:29:52.618Z,99.99
2017-01-30T01:30:20.784Z,99.99
2017-01-30T01:30:48.921Z,99.99
2017-01-30T01:31:17.015Z,99.99
2017-01-30T01:31:45.158Z,99.99
2017-01-30T01:32:13.345Z,99.99
2017-01-30T01:32:41.370Z,99.99
2017-01-30T01:33:09.450Z,99.99
2017-01-30T01:33:37.505Z,99.99
2017-01-30T01:34:05.679Z,99.99
2017-01-30T01:34:33.907Z,99.98
2017-01-30T01:35:02.077Z,99.98
2017-01-30T01:35:30.222Z,99.99
2017-01-30T01:35:58.450Z,99.99
2017-01-30T01:36:26.581Z,99.99
2017-01-30T01:36:54.696Z,99.99
2017-01-30T01:37:22.767Z,99.99
2017-01-30T01:37:50.972Z,99.99
2017-01-30T01:38:19.206Z,99.99
2017-01-30T01:38:47.447Z,99.99
2017-01-30T01:39:15.754Z,99.99
2017-01-30T01:39:43.921Z,99.99
2017-01-30T01:40:12.245Z,99.99
2017-01-30T01:40:40.627Z,99.99
2017-01-30T01:41:08.917Z,99.99
2017-01-30T01:41:37.217Z,99.99
2017-01-30T01:42:05.544Z,99.99
2017-01-30T01:42:33.706Z,99.99
2017-01-30T01:43:01.875Z,99.99
2017-01-30T01:43:30.082Z,99.99
2017-01-30T01:43:58.282Z,99.99
2017-01-30T01:44:26.390Z,99.99
2017-01-30T01:44:54.605Z,99.99
2017-01-30T01:45:22.947Z,99.99
2017-01-30T01:45:51.268Z,99.99
2017-01-30T01:46:19.532Z,99.99
2017-01-30T01:46:47.677Z,99.99
2017-01-30T01:47:15.809Z,99.99
2017-01-30T01:47:43.856Z,99.99
2017-01-30T01:48:12.097Z,99.99
2017-01-30T01:48:40.099Z,99.99
2017-01-30T01:49:08.213Z,99.99
2017-01-30T01:49:36.397Z,99.99
2017-01-30T01:50:04.637Z,99.99
2017-01-30T01:50:32.929Z,99.99
2017-01-30T01:51:01.035Z,99.99
2017-01-30T01:51:29.113Z,99.99
2017-01-30T01:51:57.343Z,99.99
2017-01-30T01:52:25.655Z,99.99
2017-01-30T01:52:53.776Z,99.99
2017-01-30T01:53:21.972Z,99.99
2017-01-30T01:53:50.112Z,99.99
2017-01-30T01:54:18.384Z,99.99
2017-01-30T01:54:46.685Z,99.99
2017-01-30T01:55:14.870Z,99.99
2017-01-30T01:55:43.093Z,99.99
2017-01-30T01:56:11.120Z,99.99
2017-01-30T01:56:39.438Z,99.99
2017-01-30T01:57:07.609Z,99.99
2017-01-30T01:57:35.721Z,99.99
2017-01-30T01:58:04.042Z,99.99
2017-01-30T01:58:32.220Z,99.99
2017-01-30T01:59:00.443Z,99.99
2017-01-30T01:59:28.877Z,99.99
2017-01-30T01:59:57.061Z,99.99
2017-01-30T02:00:25.260Z,99.99
2017-01-30T02:00:53.574Z,99.99
2017-01-30T02:01:21.922Z,99.99
2017-01-30T02:01:49.949Z,99.99
2017-01-30T02:02:18.119Z,99.99
2017-01-30T02:02:46.076Z,99.99
2017-01-30T02:03:14.212Z,99.99
2017-01-30T02:03:42.429Z,99.99
2017-01-30T02:04:10.611Z,99.99
2017-01-30T02:04:38.781Z,99.99
2017-01-30T02:05:06.932Z,99.99
2017-01-30T02:05:35.045Z,99.99
2017-01-30T02:06:03.370Z,99.99
2017-01-30T02:06:31.583Z,99.99
2017-01-30T02:06:59.738Z,99.99
2017-01-30T02:07:27.839Z,99.99
2017-01-30T02:07:56.054Z,99.99
2017-01-30T02:08:24.348Z,99.99
2017-01-30T02:08:52.270Z,99.99
2017-01-30T02:09:20.503Z,99.99
2017-01-30T02:09:48.703Z,99.99
2017-01-30T02:10:16.976Z,99.99
2017-01-30T02:10:45.248Z,99.99
2017-01-30T02:11:13.446Z,99.99
2017-01-30T02:11:41.574Z,99.99
2017-01-30T02:12:09.754Z,99.99
2017-01-30T02:12:37.893Z,99.99
2017-01-30T02:13:05.886Z,99.99
2017-01-30T02:13:33.876Z,99.99
2017-01-30T02:14:02.091Z,99.99
2017-01-30T02:14:30.298Z,99.99
2017-01-30T02:14:58.511Z,99.99
2017-01-30T02:15:26.747Z,99.99
2017-01-30T02:15:54.891Z,99.99
2017-01-30T02:16:23.115Z,99.99
2017-01-30T02:16:51.348Z,99.99
2017-01-30T02:17:19.365Z,99.99
2017-01-30T02:17:47.455Z,99.99
2017-01-30T02:18:15.670Z,99.99
2017-01-30T02:18:43.934Z,99.99
2017-01-30T02:19:12.160Z,99.99
2017-01-30T02:19:40.447Z,99.99
2017-01-30T02:20:08.604Z,99.99
2017-01-30T02:20:36.850Z,99.99
2017-01-30T02:21:05.025Z,99.99
2017-01-30T02:21:33.123Z,99.99
2017-01-30T02:22:01.215Z,99.99
2017-01-30T02:22:29.414Z,99.99
2017-01-30T02:22:57.437Z,99.99
2017-01-30T02:23:25.653Z,99.99
2017-01-30T02:23:53.753Z,99.99
2017-01-30T02:24:21.980Z,99.99
2017-01-30T02:24:50.105Z,99.99
2017-01-30T02:25:18.183Z,99.99
2017-01-30T02:25:46.174Z,99.99
2017-01-30T02:26:14.299Z,99.99
2017-01-30T02:26:42.429Z,99.99
2017-01-30T02:27:10.649Z,99.99
2017-01-30T02:27:38.764Z,99.99
2017-01-30T02:28:06.862Z,99.99
2017-01-30T02:28:35.082Z,99.99
2017-01-30T02:29:03.404Z,99.99
2017-01-30T02:29:31.615Z,99.99
2017-01-30T02:29:59.699Z,99.99
2017-01-30T02:30:27.931Z,99.99
2017-01-30T02:30:56.177Z,99.99
2017-01-30T02:31:24.366Z,99.99
2017-01-30T02:31:52.661Z,99.99
2017-01-30T02:32:20.767Z,99.99
2017-01-30T02:32:48.936Z,99.99
2017-01-30T02:33:17.067Z,99.99
2017-01-30T02:33:45.274Z,99.99
2017-01-30T02:34:13.465Z,99.99
2017-01-30T02:34:41.728Z,99.99
2017-01-30T02:35:10.047Z,99.99
2017-01-30T02:35:38.228Z,99.99
2017-01-30T02:36:06.441Z,99.99
2017-01-30T02:36:34.528Z,99.99
2017-01-30T02:37:02.720Z,99.99
2017-01-30T02:37:30.865Z,99.99
2017-01-30T02:37:58.968Z,99.99
2017-01-30T02:38:26.973Z,99.99
2017-01-30T02:38:55.168Z,99.99
2017-01-30T02:39:23.458Z,99.99
2017-01-30T02:39:51.454Z,99.99
2017-01-30T02:40:19.494Z,99.99
2017-01-30T02:40:47.733Z,99.99
2017-01-30T02:41:15.737Z,99.99
2017-01-30T02:41:44.048Z,99.99
2017-01-30T02:42:12.205Z,99.99
2017-01-30T02:42:40.523Z,99.99
2017-01-30T02:43:08.742Z,99.99
2017-01-30T02:43:36.870Z,99.99
2017-01-30T02:44:05.207Z,99.99
2017-01-30T02:44:33.362Z,99.99
2017-01-30T02:45:01.726Z,99.99
2017-01-30T02:45:29.765Z,99.99
2017-01-30T02:45:58.045Z,99.99
2017-01-30T02:46:26.232Z,99.99
2017-01-30T02:46:54.468Z,99.99
2017-01-30T02:47:22.778Z,99.99
2017-01-30T02:47:50.894Z,99.99
2017-01-30T02:48:19.089Z,99.99
2017-01-30T02:48:47.311Z,99.99
2017-01-30T02:49:15.595Z,99.99
2017-01-30T02:49:43.759Z,99.99
2017-01-30T02:50:12.009Z,99.99
2017-01-30T02:50:40.209Z,99.99
2017-01-30T02:51:08.493Z,99.99
2017-01-30T02:51:36.703Z,99.99
2017-01-30T02:52:04.883Z,99.99
2017-01-30T02:52:33.132Z,99.99
2017-01-30T02:53:01.420Z,99.99
2017-01-30T02:53:29.715Z,99.99
2017-01-30T02:53:57.824Z,99.99
2017-01-30T02:54:25.902Z,99.99
2017-01-30T02:54:54.162Z,99.99
2017-01-30T02:55:22.201Z,99.99
2017-01-30T02:55:50.332Z,99.99
2017-01-30T02:56:18.531Z,99.99
2017-01-30T02:56:46.783Z,99.99
2017-01-30T02:57:14.811Z,99.99
2017-01-30T02:57:43.055Z,99.99
2017-01-30T02:58:11.419Z,99.99
2017-01-30T02:58:39.632Z,99.99
2017-01-30T02:59:07.612Z,99.99
2017-01-30T02:59:35.731Z,99.99
2017-01-30T03:00:03.981Z,99.99
2017-01-30T03:00:32.063Z,99.99
2017-01-30T03:01:00.162Z,99.99
2017-01-30T03:01:28.250Z,99.99
2017-01-30T03:01:56.393Z,99.99
2017-01-30T03:02:24.666Z,99.99
2017-01-30T03:02:52.891Z,99.99
2017-01-30T03:03:21.202Z,99.99
2017-01-30T03:03:49.415Z,99.99
2017-01-30T03:04:17.714Z,99.99
2017-01-30T03:04:45.789Z,99.99
2017-01-30T03:05:14.012Z,99.99
2017-01-30T03:05:42.116Z,99.99
2017-01-30T03:06:10.213Z,99.99
2017-01-30T03:06:38.409Z,99.99
2017-01-30T03:07:06.430Z,99.99
2017-01-30T03:07:34.556Z,99.99
2017-01-30T03:08:02.735Z,99.99
2017-01-30T03:08:30.750Z,99.99
2017-01-30T03:08:58.801Z,99.99
2017-01-30T03:09:27.145Z,99.99
2017-01-30T03:09:55.304Z,99.99
2017-01-30T03:10:23.471Z,99.99
2017-01-30T03:10:51.791Z,99.99
2017-01-30T03:11:19.981Z,99.99
2017-01-30T03:11:48.305Z,99.99
2017-01-30T03:12:16.340Z,99.99
2017-01-30T03:12:44.383Z,99.99
2017-01-30T03:13:12.525Z,99.99
2017-01-30T03:13:40.829Z,99.99
2017-01-30T03:14:09.047Z,99.99
2017-01-30T03:14:37.281Z,99.99
2017-01-30T03:15:05.694Z,99.99
2017-01-30T03:15:34.024Z,99.99
2017-01-30T03:16:02.327Z,99.99
2017-01-30T03:16:30.592Z,99.99
2017-01-30T03:16:58.856Z,99.99
2017-01-30T03:17:27.172Z,99.99
2017-01-30T03:17:55.316Z,99.99
2017-01-30T03:18:23.728Z,99.99
2017-01-30T03:18:51.920Z,99.99
2017-01-30T03:19:20.222Z,99.99
2017-01-30T03:19:48.654Z,99.99
2017-01-30T03:20:16.841Z,99.99
2017-01-30T03:20:45.213Z,99.99
2017-01-30T03:21:13.458Z,99.99
2017-01-30T03:21:41.729Z,99.99
2017-01-30T03:22:09.814Z,99.99
2017-01-30T03:22:38.154Z,99.99
2017-01-30T03:23:06.416Z,99.99
2017-01-30T03:23:34.552Z,99.99
2017-01-30T03:24:02.620Z,99.99
2017-01-30T03:24:30.739Z,99.99
2017-01-30T03:24:58.969Z,99.99
2017-01-30T03:25:27.068Z,99.99
2017-01-30T03:25:55.345Z,99.99
2017-01-30T03:26:23.253Z,99.99
2017-01-30T03:26:51.546Z,99.99
2017-01-30T03:27:19.554Z,99.99
2017-01-30T03:27:47.744Z,99.99
2017-01-30T03:28:15.768Z,99.99
2017-01-30T03:28:43.995Z,99.99
2017-01-30T03:29:12.112Z,99.99
2017-01-30T03:29:40.144Z,99.99
2017-01-30T03:30:08.575Z,99.99
2017-01-30T03:30:36.839Z,99.99
2017-01-30T03:31:05.140Z,99.99
2017-01-30T03:31:33.418Z,99.99
2017-01-30T03:32:01.634Z,99.99
2017-01-30T03:32:30.079Z,99.99
2017-01-30T03:32:58.304Z,99.99
2017-01-30T03:33:26.462Z,99.99
2017-01-30T03:33:54.608Z,99.99
2017-01-30T03:34:22.870Z,99.99
2017-01-30T03:34:51.111Z,99.99
2017-01-30T03:35:19.304Z,99.99
2017-01-30T03:35:47.457Z,99.99
2017-01-30T03:36:15.650Z,99.99
2017-01-30T03:36:43.768Z,99.99
2017-01-30T03:37:11.894Z,99.99
2017-01-30T03:37:40.061Z,99.99
2017-01-30T03:38:08.210Z,99.99
2017-01-30T03:38:36.341Z,99.99
2017-01-30T03:39:04.641Z,99.99
2017-01-30T03:39:32.739Z,99.99
2017-01-30T03:40:01.016Z,99.99
2017-01-30T03:40:29.323Z,99.99
2017-01-30T03:40:57.543Z,99.99
2017-01-30T03:41:25.777Z,99.99
2017-01-30T03:41:53.685Z,99.99
2017-01-30T03:42:21.844Z,99.99
2017-01-30T03:42:50.049Z,99.99
2017-01-30T03:43:18.287Z,99.99
2017-01-30T03:43:46.324Z,99.99
2017-01-30T03:44:14.527Z,99.99
2017-01-30T03:44:42.737Z,99.99
2017-01-30T03:45:11.035Z,99.99
2017-01-30T03:45:39.280Z,99.99
2017-01-30T03:46:07.556Z,99.99
2017-01-30T03:46:35.615Z,99.99
2017-01-30T03:47:03.793Z,99.99
2017-01-30T03:47:31.816Z,99.99
2017-01-30T03:48:00.001Z,99.99
2017-01-30T03:48:28.175Z,99.99
2017-01-30T03:48:56.301Z,99.99
2017-01-30T03:49:24.504Z,99.99
2017-01-30T03:49:52.648Z,99.99
2017-01-30T03:50:20.724Z,99.99
2017-01-30T03:50:48.862Z,99.99
2017-01-30T03:51:17.101Z,99.99
2017-01-30T03:51:45.177Z,99.99
2017-01-30T03:52:13.398Z,99.99
2017-01-30T03:52:41.431Z,99.99
2017-01-30T03:53:09.694Z,99.99
2017-01-30T03:53:37.825Z,99.99
2017-01-30T03:54:05.942Z,99.99
2017-01-30T03:54:34.085Z,99.99
2017-01-30T03:55:02.309Z,99.99
2017-01-30T03:55:30.660Z,99.99
2017-01-30T03:55:58.828Z,99.99
2017-01-30T03:56:27.112Z,99.99
2017-01-30T03:56:55.276Z,99.99
2017-01-30T03:57:23.448Z,99.99
2017-01-30T03:57:51.635Z,99.99
2017-01-30T03:58:19.897Z,99.99
2017-01-30T03:58:48.096Z,99.99
2017-01-30T03:59:16.305Z,99.99
2017-01-30T03:59:44.500Z,99.99
2017-01-30T04:00:12.599Z,99.99
2017-01-30T04:00:40.836Z,99.99
2017-01-30T04:01:08.836Z,99.99
2017-01-30T04:01:36.934Z,99.99
2017-01-30T04:02:05.132Z,99.99
2017-01-30T04:02:33.315Z,99.99
2017-01-30T04:03:01.652Z,99.99
2017-01-30T04:03:29.832Z,99.99
2017-01-30T04:03:58.124Z,99.99
2017-01-30T04:04:26.182Z,99.99
2017-01-30T04:04:54.468Z,99.99
2017-01-30T04:05:22.674Z,99.99
2017-01-30T04:05:50.848Z,99.99
2017-01-30T04:06:18.991Z,99.99
2017-01-30T04:06:47.326Z,99.99
2017-01-30T04:07:15.260Z,99.99
2017-01-30T04:07:43.440Z,99.99
2017-01-30T04:08:11.545Z,99.99
2017-01-30T04:08:39.885Z,99.99
2017-01-30T04:09:08.107Z,99.99
2017-01-30T04:09:36.213Z,99.99
2017-01-30T04:10:04.358Z,99.99
2017-01-30T04:10:32.670Z,99.99
2017-01-30T04:11:00.903Z,99.99
2017-01-30T04:11:29.049Z,99.99
2017-01-30T04:11:57.352Z,99.99
2017-01-30T04:12:25.456Z,99.99
2017-01-30T04:12:53.648Z,99.99
2017-01-30T04:13:21.858Z,99.99
2017-01-30T04:13:50.090Z,99.99
2017-01-30T04:14:18.241Z,99.99
2017-01-30T04:14:46.523Z,99.99
2017-01-30T04:15:14.718Z,99.99
2017-01-30T04:15:42.998Z,99.99
2017-01-30T04:16:11.194Z,99.99
2017-01-30T04:16:39.109Z,99.99
2017-01-30T04:17:07.333Z,99.99
2017-01-30T04:17:35.447Z,99.99
2017-01-30T04:18:03.632Z,99.99
2017-01-30T04:18:31.803Z,99.99
2017-01-30T04:18:59.792Z,99.99
2017-01-30T04:19:27.804Z,99.99
2017-01-30T04:19:56.092Z,99.99
2017-01-30T04:20:24.067Z,99.99
2017-01-30T04:20:52.355Z,99.99
2017-01-30T04:21:20.543Z,99.99
2017-01-30T04:21:48.734Z,99.99
2017-01-30T04:22:16.904Z,99.99
2017-01-30T04:22:45.149Z,99.99
2017-01-30T04:23:13.285Z,99.99
2017-01-30T04:23:41.399Z,99.99
2017-01-30T04:24:09.678Z,99.99
2017-01-30T04:24:37.967Z,99.99
2017-01-30T04:25:06.323Z,99.99
2017-01-30T04:25:34.646Z,99.99
2017-01-30T04:26:02.864Z,99.99
2017-01-30T04:26:30.965Z,99.99
2017-01-30T04:26:59.130Z,99.99
2017-01-30T04:27:27.352Z,99.99
2017-01-30T04:27:55.565Z,99.99
2017-01-30T04:28:23.864Z,99.99
2017-01-30T04:28:51.978Z,99.99
2017-01-30T04:29:20.065Z,99.99
2017-01-30T04:29:48.323Z,99.99
2017-01-30T04:30:16.344Z,99.99
2017-01-30T04:30:44.679Z,99.99
2017-01-30T04:31:12.785Z,99.99
2017-01-30T04:31:40.991Z,99.99
2017-01-30T04:32:09.204Z,99.99
2017-01-30T04:32:37.284Z,99.99
2017-01-30T04:33:05.393Z,99.99
2017-01-30T04:33:33.732Z,99.99
2017-01-30T04:34:01.834Z,99.99
2017-01-30T04:34:30.102Z,99.99
2017-01-30T04:34:58.330Z,99.99
2017-01-30T04:35:26.538Z,99.99
2017-01-30T04:35:54.810Z,99.99
2017-01-30T04:36:23.011Z,99.99
2017-01-30T04:36:51.203Z,99.99
2017-01-30T04:37:19.598Z,99.99
2017-01-30T04:37:47.663Z,99.99
2017-01-30T04:38:15.803Z,99.99
2017-01-30T04:38:43.900Z,99.99
2017-01-30T04:39:12.100Z,99.99
2017-01-30T04:39:40.175Z,99.99
2017-01-30T04:40:08.380Z,99.99
2017-01-30T04:40:36.867Z,99.99
2017-01-30T04:41:05.057Z,99.99
2017-01-30T04:41:33.212Z,99.99
2017-01-30T04:42:01.398Z,99.99
2017-01-30T04:42:29.513Z,99.99
2017-01-30T04:42:57.780Z,99.99
2017-01-30T04:43:26.002Z,99.99
2017-01-30T04:43:54.211Z,99.99
2017-01-30T04:44:22.321Z,99.99
2017-01-30T04:44:50.548Z,99.99
2017-01-30T04:45:18.706Z,99.99
2017-01-30T04:45:46.835Z,99.99
2017-01-30T04:46:14.944Z,99.99
2017-01-30T04:46:43.215Z,99.99
2017-01-30T04:47:11.446Z,99.99
2017-01-30T04:47:39.646Z,99.99
2017-01-30T04:48:07.930Z,99.99
2017-01-30T04:48:36.235Z,99.99
2017-01-30T04:49:04.369Z,99.99
2017-01-30T04:49:32.483Z,99.99
2017-01-30T04:50:00.745Z,99.99
2017-01-30T04:50:28.744Z,99.99
2017-01-30T04:50:57.070Z,99.99
2017-01-30T04:51:25.039Z,99.99
2017-01-30T04:51:53.040Z,99.99
2017-01-30T04:52:21.052Z,99.99
2017-01-30T04:52:49.304Z,99.99
2017-01-30T04:53:17.345Z,99.99
2017-01-30T04:53:45.503Z,99.99
2017-01-30T04:54:13.702Z,99.99
2017-01-30T04:54:41.829Z,99.99
2017-01-30T04:55:10.123Z,99.99
2017-01-30T04:55:38.297Z,99.99
2017-01-30T04:56:06.625Z,99.99
2017-01-30T04:56:34.767Z,99.99
2017-01-30T04:57:02.923Z,99.99
2017-01-30T04:57:31.037Z,99.99
2017-01-30T04:57:59.332Z,99.99
2017-01-30T04:58:27.508Z,99.99
2017-01-30T04:58:55.651Z,99.99
2017-01-30T04:59:23.765Z,99.99
2017-01-30T04:59:52.092Z,99.99
2017-01-30T05:00:20.296Z,99.99
2017-01-30T05:00:48.659Z,99.99
2017-01-30T05:01:16.789Z,99.99
2017-01-30T05:01:44.663Z,99.99
2017-01-30T05:02:12.864Z,99.99
2017-01-30T05:02:40.966Z,99.99
2017-01-30T05:03:09.015Z,99.99
2017-01-30T05:03:37.145Z,99.99
2017-01-30T05:04:05.460Z,99.99
2017-01-30T05:04:33.728Z,99.99
2017-01-30T05:05:01.886Z,99.99
2017-01-30T05:05:30.044Z,99.99
2017-01-30T05:05:58.383Z,99.99
2017-01-30T05:06:26.582Z,99.99
2017-01-30T05:06:54.631Z,99.99
2017-01-30T05:07:22.926Z,99.99
2017-01-30T05:07:51.239Z,99.99
2017-01-30T05:08:19.382Z,99.99
2017-01-30T05:08:47.500Z,99.99
2017-01-30T05:09:15.589Z,99.99
2017-01-30T05:09:43.577Z,99.99
2017-01-30T05:10:11.555Z,99.99
2017-01-30T05:10:39.742Z,99.99
2017-01-30T05:11:07.955Z,99.99
2017-01-30T05:11:36.173Z,99.99
2017-01-30T05:12:04.314Z,99.99
2017-01-30T05:12:32.418Z,99.99
2017-01-30T05:13:00.548Z,99.99
2017-01-30T05:13:28.585Z,99.99
2017-01-30T05:13:56.738Z,99.99
2017-01-30T05:14:24.909Z,99.99
2017-01-30T05:14:53.187Z,99.99
2017-01-30T05:15:21.463Z,99.99
2017-01-30T05:15:49.732Z,99.99
2017-01-30T05:16:17.838Z,99.99
2017-01-30T05:16:45.970Z,99.99
2017-01-30T05:17:13.981Z,99.99
2017-01-30T05:17:42.191Z,99.99
2017-01-30T05:18:10.491Z,99.99
2017-01-30T05:18:38.476Z,99.99
2017-01-30T05:19:06.585Z,99.99
2017-01-30T05:19:34.806Z,99.99
2017-01-30T05:20:03.034Z,99.99
2017-01-30T05:20:31.326Z,99.99
2017-01-30T05:20:59.585Z,99.99
2017-01-30T05:21:27.889Z,99.99
2017-01-30T05:21:55.960Z,99.99
2017-01-30T05:22:24.012Z,99.99
2017-01-30T05:22:52.233Z,99.99
2017-01-30T05:23:20.509Z,99.99
2017-01-30T05:23:48.659Z,99.99
2017-01-30T05:24:16.733Z,99.99
2017-01-30T05:24:45.061Z,99.99
2017-01-30T05:25:13.267Z,99.99
2017-01-30T05:25:41.487Z,99.99
2017-01-30T05:26:09.780Z,99.99
2017-01-30T05:26:37.875Z,99.99
2017-01-30T05:27:06.188Z,99.99
2017-01-30T05:27:34.481Z,99.99
2017-01-30T05:28:02.505Z,99.99
2017-01-30T05:28:30.495Z,99.99
2017-01-30T05:28:58.727Z,99.99
2017-01-30T05:29:26.778Z,99.99
2017-01-30T05:29:55.037Z,99.99
2017-01-30T05:30:23.136Z,99.99
2017-01-30T05:30:51.204Z,99.99
2017-01-30T05:31:19.462Z,99.99
2017-01-30T05:31:47.570Z,99.99
2017-01-30T05:32:15.715Z,99.99
2017-01-30T05:32:43.893Z,99.99
2017-01-30T05:33:11.931Z,99.99
2017-01-30T05:33:40.103Z,99.99
2017-01-30T05:34:08.207Z,99.99
2017-01-30T05:34:36.392Z,99.99
2017-01-30T05:35:04.458Z,99.99
2017-01-30T05:35:32.398Z,99.99
2017-01-30T05:36:00.668Z,99.99
2017-01-30T05:36:28.735Z,99.99
2017-01-30T05:36:56.752Z,99.99
2017-01-30T05:37:24.659Z,99.99
2017-01-30T05:37:52.751Z,99.99
2017-01-30T05:38:21.066Z,99.99
2017-01-30T05:38:49.111Z,99.99
2017-01-30T05:39:17.244Z,99.99
2017-01-30T05:39:45.478Z,99.99
2017-01-30T05:40:13.455Z,99.99
2017-01-30T05:40:41.670Z,99.99
2017-01-30T05:41:09.881Z,99.99
2017-01-30T05:41:38.094Z,99.99
2017-01-30T05:42:06.292Z,99.99
2017-01-30T05:42:34.342Z,99.99
2017-01-30T05:43:02.586Z,99.99
2017-01-30T05:43:30.686Z,99.99
2017-01-30T05:43:58.920Z,99.99
2017-01-30T05:44:27.025Z,99.99
2017-01-30T05:44:55.120Z,99.99
2017-01-30T05:45:23.324Z,99.99
2017-01-30T05:45:51.416Z,99.99
2017-01-30T05:46:19.549Z,99.99
2017-01-30T05:46:47.501Z,99.99
2017-01-30T05:47:15.725Z,99.99
2017-01-30T05:47:43.962Z,99.99
2017-01-30T05:48:12.006Z,99.99
2017-01-30T05:48:40.025Z,99.99
2017-01-30T05:49:08.295Z,99.99
2017-01-30T05:49:36.359Z,99.99
2017-01-30T05:50:04.371Z,99.99
2017-01-30T05:50:32.558Z,99.99
2017-01-30T05:51:00.575Z,99.99
2017-01-30T05:51:28.880Z,99.99
2017-01-30T05:51:57.079Z,99.99
2017-01-30T05:52:25.311Z,99.99
2017-01-30T05:52:53.496Z,99.99
2017-01-30T05:53:21.673Z,99.99
2017-01-30T05:53:49.836Z,99.99
2017-01-30T05:54:17.936Z,99.99
2017-01-30T05:54:45.951Z,99.99
2017-01-30T05:55:14.116Z,99.99
2017-01-30T05:55:42.232Z,99.99
2017-01-30T05:56:10.463Z,99.99
2017-01-30T05:56:38.566Z,99.99
2017-01-30T05:57:06.743Z,99.99
2017-01-30T05:57:35.062Z,99.99
2017-01-30T05:58:03.215Z,99.99
2017-01-30T05:58:31.415Z,99.99
2017-01-30T05:58:59.636Z,99.99
2017-01-30T05:59:27.759Z,99.99
2017-01-30T05:59:55.985Z,99.99
2017-01-30T06:00:23.909Z,99.99
2017-01-30T06:00:52.185Z,99.99
2017-01-30T06:01:20.459Z,99.99
2017-01-30T06:01:48.493Z,99.99
2017-01-30T06:02:16.809Z,99.99
2017-01-30T06:02:45.019Z,99.99
2017-01-30T06:03:13.235Z,99.99